Map

Track Data

SID SEASON NUMBER BASIN SUBBASIN NAME ISO_TIME NATURE LAT LON WMO_WIND WMO_PRES WMO_AGENCY TRACK_TYPE DIST2LAND LANDFALL IFLAG USA_AGENCY USA_ATCF_ID USA_LAT USA_LON USA_RECORD USA_STATUS USA_WIND USA_PRES USA_SSHS USA_R34_NE USA_R34_SE USA_R34_SW USA_R34_NW USA_R50_NE USA_R50_SE USA_R50_SW USA_R50_NW USA_R64_NE USA_R64_SE USA_R64_SW USA_R64_NW USA_POCI USA_ROCI USA_RMW USA_EYE TOKYO_LAT TOKYO_LON TOKYO_GRADE TOKYO_WIND TOKYO_PRES TOKYO_R50_DIR TOKYO_R50_LONG TOKYO_R50_SHORT TOKYO_R30_DIR TOKYO_R30_LONG TOKYO_R30_SHORT TOKYO_LAND CMA_LAT CMA_LON CMA_CAT CMA_WIND CMA_PRES HKO_LAT HKO_LON HKO_CAT HKO_WIND HKO_PRES NEWDELHI_LAT NEWDELHI_LON NEWDELHI_GRADE NEWDELHI_WIND NEWDELHI_PRES NEWDELHI_CI NEWDELHI_DP NEWDELHI_POCI REUNION_LAT REUNION_LON REUNION_TYPE REUNION_WIND REUNION_PRES REUNION_TNUM REUNION_CI REUNION_RMW REUNION_R34_NE REUNION_R34_SE REUNION_R34_SW REUNION_R34_NW REUNION_R50_NE REUNION_R50_SE REUNION_R50_SW REUNION_R50_NW REUNION_R64_NE REUNION_R64_SE REUNION_R64_SW REUNION_R64_NW BOM_LAT BOM_LON BOM_TYPE BOM_WIND BOM_PRES BOM_TNUM BOM_CI BOM_RMW BOM_R34_NE BOM_R34_SE BOM_R34_SW BOM_R34_NW BOM_R50_NE BOM_R50_SE BOM_R50_SW BOM_R50_NW BOM_R64_NE BOM_R64_SE BOM_R64_SW BOM_R64_NW BOM_ROCI BOM_POCI BOM_EYE BOM_POS_METHOD BOM_PRES_METHOD NADI_LAT NADI_LON NADI_CAT NADI_WIND NADI_PRES WELLINGTON_LAT WELLINGTON_LON WELLINGTON_WIND WELLINGTON_PRES DS824_LAT DS824_LON DS824_STAGE DS824_WIND DS824_PRES TD9636_LAT TD9636_LON TD9636_STAGE TD9636_WIND TD9636_PRES TD9635_LAT TD9635_LON TD9635_WIND TD9635_PRES TD9635_ROCI NEUMANN_LAT NEUMANN_LON NEUMANN_CLASS NEUMANN_WIND NEUMANN_PRES MLC_LAT MLC_LON MLC_CLASS MLC_WIND MLC_PRES USA_GUST BOM_GUST BOM_GUST_PER REUNION_GUST REUNION_GUST_PER USA_SEAHGT USA_SEARAD_NE USA_SEARAD_SE USA_SEARAD_SW USA_SEARAD_NW STORM_SPEED STORM_DIR
1946201N17087 1946 40 NI BB NOT_NAMED 1946-07-19 18:00:00 TS 16.8000 86.9000 main 330 323 O________O____ jtwc_io IO041946 16.8000 86.9000 -1 16.8000 86.9000 TC 3 19
1946201N17087 1946 40 NI BB NOT_NAMED 1946-07-19 21:00:00 TS 16.9500 86.9600 main 324 317 P________P____ IO041946 16.9500 86.9600 -1 16.9500 86.9600 TC 3 17
1946201N17087 1946 40 NI BB NOT_NAMED 1946-07-20 00:00:00 TS 17.1000 87.0000 main 317 310 O________O____ jtwc_io IO041946 17.1000 87.0000 -1 17.1000 87.0000 TC 25 3 6
1946201N17087 1946 40 NI BB NOT_NAMED 1946-07-20 03:00:00 TS 17.2444 87.0067 main 310 295 P________PO___ IO041946 17.2500 87.0075 -1 17.2500 87.0075 TC 25 17.2000 87.0000 1 3 4
1946201N17087 1946 40 NI BB NOT_NAMED 1946-07-20 06:00:00 TS 17.3953 87.0006 main 295 284 O________OP___ jtwc_io IO041946 17.4000 87.0000 -1 17.4000 87.0000 TC 25 17.3766 87.0031 1 3 357
1946201N17087 1946 40 NI BB NOT_NAMED 1946-07-20 09:00:00 TS 17.5452 87.0014 main 284 263 P________PP___ IO041946 17.5425 87.0000 -1 17.5425 87.0000 TC 25 17.5525 87.0050 1 3 2
1946201N17087 1946 40 NI BB NOT_NAMED 1946-07-20 12:00:00 TS 17.7091 87.0014 main 263 242 O________OP___ jtwc_io IO041946 17.7000 87.0000 -1 17.7000 87.0000 TC 25 17.7272 87.0043 1 4 0
1946201N17087 1946 40 NI BB NOT_NAMED 1946-07-20 15:00:00 TS 17.9000 87.0000 main 242 221 P________PO___ IO041946 17.9000 87.0000 -1 17.9000 87.0000 TC 25 17.9000 87.0000 1 4 356
1946201N17087 1946 40 NI BB NOT_NAMED 1946-07-20 18:00:00 TS 18.0898 86.9973 main 221 210 O________OP___ jtwc_io IO041946 18.1000 87.0000 -1 18.1000 87.0000 TC 25 18.0694 86.9919 1 4 357
1946201N17087 1946 40 NI BB NOT_NAMED 1946-07-20 21:00:00 TS 18.2533 86.9950 main 200 189 P________PP___ IO041946 18.2650 87.0000 -1 18.2650 87.0000 TC 25 18.2300 86.9850 1 3 0
1946201N17087 1946 40 NI BB NOT_NAMED 1946-07-21 00:00:00 TS 18.3919 86.9952 main 189 179 O________OP___ jtwc_io IO041946 18.4000 87.0000 -1 18.4000 87.0000 TC 25 18.3756 86.9857 1 3 0
1946201N17087 1946 40 NI BB NOT_NAMED 1946-07-21 03:00:00 TS 18.5100 86.9950 main 179 168 P________PO___ IO041946 18.5150 86.9925 -1 18.5150 86.9925 TC 25 18.5000 87.0000 1 2 0
1946201N17087 1946 40 NI BB NOT_NAMED 1946-07-21 06:00:00 TS 18.5989 87.0132 main 168 162 O________OP___ jtwc_io IO041946 18.6000 87.0000 -1 18.6000 87.0000 TC 25 18.5966 87.0397 1 2 21
1946201N17087 1946 40 NI BB NOT_NAMED 1946-07-21 09:00:00 TS 18.6575 87.0592 main 162 162 P________PP___ IO041946 18.6500 87.0425 -1 18.6500 87.0425 TC 25 18.6725 87.0925 1 2 40
1946201N17087 1946 40 NI BB NOT_NAMED 1946-07-21 12:00:00 TS 18.7124 87.1163 main 162 152 O________OP___ jtwc_io IO041946 18.7000 87.1000 -1 18.7000 87.1000 TC 25 18.7372 87.1490 1 2 36
1946201N17087 1946 40 NI BB NOT_NAMED 1946-07-21 15:00:00 TS 18.8000 87.1667 main 158 148 P________PO___ IO041946 18.8000 87.1500 -1 18.8000 87.1500 TC 25 18.8000 87.2000 1 2 28
1946201N17087 1946 40 NI BB NOT_NAMED 1946-07-21 18:00:00 TS 18.8835 87.2094 main 148 148 O________OP___ jtwc_io IO041946 18.9000 87.2000 -1 18.9000 87.2000 TC 25 18.8506 87.2282 1 2 32
1946201N17087 1946 40 NI BB NOT_NAMED 1946-07-21 21:00:00 TS 18.9300 87.2550 main 155 146 P________PP___ IO041946 18.9425 87.2575 -1 18.9425 87.2575 TC 25 18.9050 87.2501 1 1 36
1946201N17087 1946 40 NI BB NOT_NAMED 1946-07-22 00:00:00 TS 18.9940 87.2907 main 146 137 O________OP___ jtwc_io IO041946 19.0000 87.3000 -1 19.0000 87.3000 TC 25 18.9819 87.2720 1 2 9
1946201N17087 1946 40 NI BB NOT_NAMED 1946-07-22 03:00:00 TS 19.1133 87.2951 main 137 122 P________PO___ IO041946 19.1200 87.2926 -1 19.1200 87.2926 TC 25 19.1000 87.3000 1 3 5
1946201N17087 1946 40 NI BB NOT_NAMED 1946-07-22 06:00:00 TS 19.2940 87.3223 main 122 115 O________OP___ jtwc_io IO041946 19.3000 87.3000 -1 19.3000 87.3000 TC 25 19.2819 87.3669 1 4 15
1946201N17087 1946 40 NI BB NOT_NAMED 1946-07-22 09:00:00 TS 19.5300 87.4123 main 115 100 P________PP___ IO041946 19.5425 87.3999 -1 19.5425 87.3999 TC 25 19.5050 87.4370 1 5 18
1946201N17087 1946 40 NI BB NOT_NAMED 1946-07-22 12:00:00 TS 19.7835 87.4962 main 100 89 O________OP___ jtwc_io IO041946 19.8000 87.5000 -1 19.8000 87.5000 TC 25 19.7506 87.4887 1 5 12
1946201N17087 1946 40 NI BB NOT_NAMED 1946-07-22 15:00:00 TS 20.0000 87.5200 main 89 76 P________PO___ IO041946 20.0000 87.5300 -1 20.0000 87.5300 TC 25 20.0000 87.5000 1 4 0
1946201N17087 1946 40 NI BB NOT_NAMED 1946-07-22 18:00:00 TS 20.2124 87.4852 main 76 53 O________OP___ jtwc_io IO041946 20.2000 87.5000 -1 20.2000 87.5000 TC 25 20.2372 87.4555 1 5 347
1946201N17087 1946 40 NI BB NOT_NAMED 1946-07-22 21:00:00 TS 20.4575 87.4092 main 47 31 P________PP___ IO041946 20.4500 87.4300 -1 20.4500 87.4300 TC 25 20.4724 87.3677 1 5 339
1946201N17087 1946 40 NI BB NOT_NAMED 1946-07-23 00:00:00 TS 20.6988 87.2820 main 31 15 O________OP___ jtwc_io IO041946 20.7000 87.3000 -1 20.7000 87.3000 TC 25 20.6965 87.2460 1 5 328
1946201N17087 1946 40 NI BB NOT_NAMED 1946-07-23 03:00:00 TS 20.9100 87.1050 main 15 10 P________PO___ IO041946 20.9150 87.1075 -1 20.9150 87.1075 TC 25 20.9000 87.1000 1 5 319
1946201N17087 1946 40 NI BB NOT_NAMED 1946-07-23 06:00:00 TS 21.0932 86.9142 main 10 0 O________OP___ jtwc_io IO041946 21.1000 86.9000 -1 21.1000 86.9000 TC 25 21.0797 86.9425 1 5 317
1946201N17087 1946 40 NI BB NOT_NAMED 1946-07-23 09:00:00 TS 21.2558 86.7550 main 0 0 P________PP___ IO041946 21.2649 86.7499 -1 21.2649 86.7499 TC 25 21.2376 86.7650 1 4 315
1946201N17087 1946 40 NI BB NOT_NAMED 1946-07-23 12:00:00 TS 21.3922 86.5933 main 0 0 O________OP___ jtwc_io IO041946 21.4000 86.6000 -1 21.4000 86.6000 TC 25 21.3766 86.5800 1 4 307
1946201N17087 1946 40 NI BB NOT_NAMED 1946-07-23 15:00:00 TS 21.5050 86.4000 main 0 0 P________PO___ IO041946 21.5075 86.4000 -1 21.5075 86.4000 TC 25 21.5000 86.4000 1 4 301
1946201N17087 1946 40 NI BB NOT_NAMED 1946-07-23 18:00:00 TS 21.6044 86.2139 main 0 0 O________OP___ jtwc_io IO041946 21.6000 86.2000 -1 21.6000 86.2000 TC 25 21.6109 86.2347 1 4 302
1946201N17087 1946 40 NI BB NOT_NAMED 1946-07-23 21:00:00 TS 21.7039 86.0568 main 0 0 P________PP___ IO041946 21.6975 86.0375 -1 21.6975 86.0375 TC 25 21.7125 86.0826 1 3 306
1946201N17087 1946 40 NI BB NOT_NAMED 1946-07-24 00:00:00 TS 21.8039 85.9196 main 0 0 O________OP___ jtwc_io IO041946 21.8000 85.9000 -1 21.8000 85.9000 TC 25 21.8078 85.9391 1 3 309
1946201N17087 1946 40 NI BB NOT_NAMED 1946-07-24 03:00:00 NR 21.9000 85.8000 main 0 __________O___ IO041946 -1 TC 21.9000 85.8000 1 3 310

About IBTrACS Database

This database is a web-friendly format of International Best Track Archive for Climate Stewardship (IBTrACS), a global best track data archive curated by NOAA dating back to 1842.

Updated: 2021-10-25